Stena Carrier — OWEE2 — position and weather

sailwx.info

Track history (hours):
 
Tides and Currents Weather Stations Pressure Air Temp Water Temp Dewpoint Dewpoint Depression Visibility Wind Speed Wind Dir Waves Ship Positions

Stena Carrier

Last reported at 2017-Sep-19 19:48 UTC. Time now 2017-Sep-19 22:43 UTC.
Position N 35°53' W 005°31'.

Length 183 m; draft 6.3 m.

Type: Ship (hazmat cat A). MMSI: 219020207.

Date/timePositionNaut miles runAvg speedWind from/ knotsBaromVisibWave heightAir tempDewpointWater temp
2017-Sep-19 19:48N 35°53' W 005°31'3 5.1
2017-Sep-19 19:11N 35°56' W 005°31'2 9.6
2017-Sep-19 19:00N 35°57' W 005°29'714.3
2017-Sep-19 18:30N 36°03' W 005°24'610.4
2017-Sep-19 17:58N 36°08' W 005°26'0 0.1
2017-Sep-19 13:11N 36°08' W 005°26'1 3.3
2017-Sep-19 13:00N 36°08' W 005°26'5 9.0
2017-Sep-19 12:28N 36°04' W 005°24'918.8
2017-Sep-19 12:01N 35°56' W 005°28'3 0.2
2017-Sep-18 19:56N 35°54' W 005°31'3 5.8
2017-Sep-18 19:29N 35°56' W 005°30'511.7
2017-Sep-18 19:00N 36°01' W 005°26'611.2
2017-Sep-18 18:30N 36°06' W 005°23'3 0.5
2017-Sep-18 12:59N 36°09' W 005°24'914.4
2017-Sep-18 12:21N 35°60' W 005°25'4 0.6
2017-Sep-18 06:19N 35°58' W 005°29'515.1
2017-Sep-18 05:59N 36°02' W 005°25'6 0.6
2017-Sep-17 19:37N 36°08' W 005°26'1 4.8
2017-Sep-17 19:29N 36°09' W 005°26'3 7.0
2017-Sep-17 19:01N 36°06' W 005°23'816.7
2017-Sep-17 18:30N 35°58' W 005°26'4 0.6
2017-Sep-17 12:30N 35°56' W 005°30'816.6
2017-Sep-17 12:00N 36°03' W 005°24'3 0.5
2017-Sep-17 06:27N 36°05' W 005°23'818.4
2017-Sep-17 06:01N 35°58' W 005°27'3 0.3
2017-Sep-16 19:00N 35°56' W 005°30'816.0
2017-Sep-16 18:30N 36°02' W 005°24'6 1.3
2017-Sep-16 13:56N 36°08' W 005°26'2 4.3
2017-Sep-16 13:29N 36°07' W 005°24'918.7
2017-Sep-16 13:01N 35°59' W 005°26'7 0.4
2017-Sep-15 19:59N 35°53' W 005°31'3 2.2
2017-Sep-15 18:34N 35°56' W 005°30'1 9.9
2017-Sep-15 18:30N 35°57' W 005°30'714.9
2017-Sep-15 18:00N 36°03' W 005°24'6 1.3
2017-Sep-15 13:29N 36°08' W 005°26'3 6.0
2017-Sep-15 13:01N 36°06' W 005°24'917.6
2017-Sep-15 12:31N 35°58' W 005°27'4 0.6
2017-Sep-15 06:14N 35°56' W 005°31'416.8
2017-Sep-15 06:00N 35°59' W 005°28'816.4
2017-Sep-15 05:30N 36°07' W 005°24'2 0.2
2017-Sep-14 18:48N 36°08' W 005°26'2 4.9
2017-Sep-14 18:29N 36°09' W 005°24'917.0
2017-Sep-14 17:57N 35°60' W 005°25'5 1.1
2017-Sep-14 13:09N 35°56' W 005°31'316.7
2017-Sep-14 13:00N 35°59' W 005°29'917.7
2017-Sep-14 12:30N 36°06' W 005°24'5 0.9
2017-Sep-14 06:46N 36°01' W 005°24'518.5
2017-Sep-14 06:31N 35°57' W 005°28'4 0.4
2017-Sep-13 19:04N 35°54' W 005°31'3 5.0
2017-Sep-13 18:33N 35°56' W 005°30'114.2
2017-Sep-13 18:30N 35°57' W 005°30'816.9
2017-Sep-13 18:00N 36°04' W 005°24'6 1.3
2017-Sep-13 13:36N 36°09' W 005°25'210.9
2017-Sep-13 13:25N 36°07' W 005°24'717.3
2017-Sep-13 13:00N 36°00' W 005°24'6 0.9
2017-Sep-13 06:11N 35°56' W 005°31'318.2
2017-Sep-13 06:00N 35°59' W 005°28'917.0
2017-Sep-13 05:30N 36°06' W 005°23'3 0.2
2017-Sep-12 19:18N 36°08' W 005°26'2 4.8
2017-Sep-12 18:58N 36°09' W 005°25'4 7.8
2017-Sep-12 18:31N 36°06' W 005°23'918.4
2017-Sep-12 18:01N 35°57' W 005°27'3 0.6
2017-Sep-12 13:22N 35°56' W 005°31'616.2
2017-Sep-12 13:01N 36°01' W 005°26'815.3
2017-Sep-12 12:31N 36°08' W 005°24'1 0.4
2017-Sep-12 09:28N 36°08' W 005°26'0 0.0
2017-Sep-12 08:58N 36°08' W 005°26'0 0.0
2017-Sep-12 04:40N 36°08' W 005°26'0 0.0
2017-Sep-12 03:28N 36°08' W 005°26'0 0.0
2017-Sep-12 02:58N 36°08' W 005°26'0 0.0
2017-Sep-12 02:28N 36°08' W 005°26'0 0.0
2017-Sep-12 01:58N 36°08' W 005°26'0 0.0
2017-Sep-11 23:31N 36°08' W 005°26'0 0.0
2017-Sep-11 23:16N 36°08' W 005°26'0 0.0
2017-Sep-11 22:57N 36°08' W 005°26'0 0.0
2017-Sep-11 22:30N 36°08' W 005°26'0 0.0
2017-Sep-11 22:00N 36°08' W 005°26'0 0.0
2017-Sep-11 21:31N 36°08' W 005°26'0 0.0
2017-Sep-11 21:00N 36°08' W 005°26'0 0.0
2017-Sep-11 20:30N 36°08' W 005°26'0 0.5
2017-Sep-11 20:00N 36°08' W 005°26'4 7.2
2017-Sep-11 19:30N 36°05' W 005°23'918.1
2017-Sep-11 19:00N 35°57' W 005°28'2 0.4
2017-Sep-11 13:06N 35°56' W 005°30'217.3
2017-Sep-11 13:00N 35°58' W 005°30'816.4
2017-Sep-11 12:31N 36°04' W 005°24'1 0.1
2017-Sep-11 06:17N 36°04' W 005°23'517.9
2017-Sep-11 06:00N 35°60' W 005°24'9 0.9
2017-Sep-10 19:47N 35°53' W 005°31'3 7.8
2017-Sep-10 19:22N 35°56' W 005°30'615.9
2017-Sep-10 19:01N 36°00' W 005°25'815.2
2017-Sep-10 18:31N 36°08' W 005°24'2 3.1
2017-Sep-10 18:00N 36°08' W 005°26'0 0.0
2017-Sep-10 14:00N 36°08' W 005°26'0 0.1
2017-Sep-10 12:56N 36°08' W 005°26'2 4.9
2017-Sep-10 12:30N 36°07' W 005°24'918.0
2017-Sep-10 12:01N 35°58' W 005°26'6 1.0
2017-Sep-10 06:32N 35°54' W 005°31'1 7.8
2017-Sep-10 06:23N 35°55' W 005°31'615.2
2017-Sep-10 06:00N 36°00' W 005°27'815.5
2017-Sep-10 05:30N 36°08' W 005°24'2 3.1
2017-Sep-10 05:00N 36°08' W 005°26'0 0.0
2017-Sep-10 04:30N 36°08' W 005°26'0 0.0
2017-Sep-10 04:00N 36°08' W 005°26'0 0.0
2017-Sep-10 03:30N 36°08' W 005°26'  
Track history (hours):
 
Tides and Currents Weather Stations Pressure Air Temp Water Temp Dewpoint Dewpoint Depression Visibility Wind Speed Wind Dir Waves Ship Positions

Stena Carrier

Last reported at 2017-Sep-19 19:48 UTC. Time now 2017-Sep-19 22:43 UTC.
Position N 35°53' W 005°31'.

Length 183 m; draft 6.3 m.

Type: Ship (hazmat cat A). MMSI: 219020207.

Date/timePositionNaut miles runAvg speedWind from/ knotsBaromVisibWave heightAir tempDewpointWater temp
2017-Sep-19 19:48N 35°53' W 005°31'3 5.1
2017-Sep-19 19:11N 35°56' W 005°31'2 9.6
2017-Sep-19 19:00N 35°57' W 005°29'714.3
2017-Sep-19 18:30N 36°03' W 005°24'610.4
2017-Sep-19 17:58N 36°08' W 005°26'0 0.1
2017-Sep-19 13:11N 36°08' W 005°26'1 3.3
2017-Sep-19 13:00N 36°08' W 005°26'5 9.0
2017-Sep-19 12:28N 36°04' W 005°24'918.8
2017-Sep-19 12:01N 35°56' W 005°28'3 0.2
2017-Sep-18 19:56N 35°54' W 005°31'3 5.8
2017-Sep-18 19:29N 35°56' W 005°30'511.7
2017-Sep-18 19:00N 36°01' W 005°26'611.2
2017-Sep-18 18:30N 36°06' W 005°23'3 0.5
2017-Sep-18 12:59N 36°09' W 005°24'914.4
2017-Sep-18 12:21N 35°60' W 005°25'4 0.6
2017-Sep-18 06:19N 35°58' W 005°29'515.1
2017-Sep-18 05:59N 36°02' W 005°25'6 0.6
2017-Sep-17 19:37N 36°08' W 005°26'1 4.8
2017-Sep-17 19:29N 36°09' W 005°26'3 7.0
2017-Sep-17 19:01N 36°06' W 005°23'816.7
2017-Sep-17 18:30N 35°58' W 005°26'4 0.6
2017-Sep-17 12:30N 35°56' W 005°30'816.6
2017-Sep-17 12:00N 36°03' W 005°24'3 0.5
2017-Sep-17 06:27N 36°05' W 005°23'818.4
2017-Sep-17 06:01N 35°58' W 005°27'3 0.3
2017-Sep-16 19:00N 35°56' W 005°30'816.0
2017-Sep-16 18:30N 36°02' W 005°24'6 1.3
2017-Sep-16 13:56N 36°08' W 005°26'2 4.3
2017-Sep-16 13:29N 36°07' W 005°24'918.7
2017-Sep-16 13:01N 35°59' W 005°26'7 0.4
2017-Sep-15 19:59N 35°53' W 005°31'3 2.2
2017-Sep-15 18:34N 35°56' W 005°30'1 9.9
2017-Sep-15 18:30N 35°57' W 005°30'714.9
2017-Sep-15 18:00N 36°03' W 005°24'6 1.3
2017-Sep-15 13:29N 36°08' W 005°26'3 6.0
2017-Sep-15 13:01N 36°06' W 005°24'917.6
2017-Sep-15 12:31N 35°58' W 005°27'4 0.6
2017-Sep-15 06:14N 35°56' W 005°31'416.8
2017-Sep-15 06:00N 35°59' W 005°28'816.4
2017-Sep-15 05:30N 36°07' W 005°24'2 0.2
2017-Sep-14 18:48N 36°08' W 005°26'2 4.9
2017-Sep-14 18:29N 36°09' W 005°24'917.0
2017-Sep-14 17:57N 35°60' W 005°25'5 1.1
2017-Sep-14 13:09N 35°56' W 005°31'316.7
2017-Sep-14 13:00N 35°59' W 005°29'917.7
2017-Sep-14 12:30N 36°06' W 005°24'5 0.9
2017-Sep-14 06:46N 36°01' W 005°24'518.5
2017-Sep-14 06:31N 35°57' W 005°28'4 0.4
2017-Sep-13 19:04N 35°54' W 005°31'3 5.0
2017-Sep-13 18:33N 35°56' W 005°30'114.2
2017-Sep-13 18:30N 35°57' W 005°30'816.9
2017-Sep-13 18:00N 36°04' W 005°24'6 1.3
2017-Sep-13 13:36N 36°09' W 005°25'210.9
2017-Sep-13 13:25N 36°07' W 005°24'717.3
2017-Sep-13 13:00N 36°00' W 005°24'6 0.9
2017-Sep-13 06:11N 35°56' W 005°31'318.2
2017-Sep-13 06:00N 35°59' W 005°28'917.0
2017-Sep-13 05:30N 36°06' W 005°23'3 0.2
2017-Sep-12 19:18N 36°08' W 005°26'2 4.8
2017-Sep-12 18:58N 36°09' W 005°25'4 7.8
2017-Sep-12 18:31N 36°06' W 005°23'918.4
2017-Sep-12 18:01N 35°57' W 005°27'3 0.6
2017-Sep-12 13:22N 35°56' W 005°31'616.2
2017-Sep-12 13:01N 36°01' W 005°26'815.3
2017-Sep-12 12:31N 36°08' W 005°24'1 0.4
2017-Sep-12 09:28N 36°08' W 005°26'0 0.0
2017-Sep-12 08:58N 36°08' W 005°26'0 0.0
2017-Sep-12 04:40N 36°08' W 005°26'0 0.0
2017-Sep-12 03:28N 36°08' W 005°26'0 0.0
2017-Sep-12 02:58N 36°08' W 005°26'0 0.0
2017-Sep-12 02:28N 36°08' W 005°26'0 0.0
2017-Sep-12 01:58N 36°08' W 005°26'0 0.0
2017-Sep-11 23:31N 36°08' W 005°26'0 0.0
2017-Sep-11 23:16N 36°08' W 005°26'0 0.0
2017-Sep-11 22:57N 36°08' W 005°26'0 0.0
2017-Sep-11 22:30N 36°08' W 005°26'0 0.0
2017-Sep-11 22:00N 36°08' W 005°26'0 0.0
2017-Sep-11 21:31N 36°08' W 005°26'0 0.0
2017-Sep-11 21:00N 36°08' W 005°26'0 0.0
2017-Sep-11 20:30N 36°08' W 005°26'0 0.5
2017-Sep-11 20:00N 36°08' W 005°26'4 7.2
2017-Sep-11 19:30N 36°05' W 005°23'918.1
2017-Sep-11 19:00N 35°57' W 005°28'2 0.4
2017-Sep-11 13:06N 35°56' W 005°30'217.3
2017-Sep-11 13:00N 35°58' W 005°30'816.4
2017-Sep-11 12:31N 36°04' W 005°24'1 0.1
2017-Sep-11 06:17N 36°04' W 005°23'517.9
2017-Sep-11 06:00N 35°60' W 005°24'9 0.9
2017-Sep-10 19:47N 35°53' W 005°31'3 7.8
2017-Sep-10 19:22N 35°56' W 005°30'615.9
2017-Sep-10 19:01N 36°00' W 005°25'815.2
2017-Sep-10 18:31N 36°08' W 005°24'2 3.1
2017-Sep-10 18:00N 36°08' W 005°26'0 0.0
2017-Sep-10 14:00N 36°08' W 005°26'0 0.1
2017-Sep-10 12:56N 36°08' W 005°26'2 4.9
2017-Sep-10 12:30N 36°07' W 005°24'918.0
2017-Sep-10 12:01N 35°58' W 005°26'6 1.0
2017-Sep-10 06:32N 35°54' W 005°31'1 7.8
2017-Sep-10 06:23N 35°55' W 005°31'615.2
2017-Sep-10 06:00N 36°00' W 005°27'815.5
2017-Sep-10 05:30N 36°08' W 005°24'2 3.1
2017-Sep-10 05:00N 36°08' W 005°26'0 0.0
2017-Sep-10 04:30N 36°08' W 005°26'0 0.0
2017-Sep-10 04:00N 36°08' W 005°26'0 0.0
2017-Sep-10 03:30N 36°08' W 005°26'  

Dump ship's entire track history